Time;durP1;ratioP1;P1;durP2;ratioP2;P2;SDS_P1;SDS_P2;PMS_P1;PMS_P2;Temp;Humidity;BMP_temperature;BMP_pressure;BME280_temperature;BME280_humidity;BME280_pressure;Samples;Min_cycle;Max_cycle;Signal;HPM_P1;HPM_P2
2022/06/30 00:06:27;;;;;;;12.9;14.3;;;;;;;21.5;100;98320;;;;
2022/06/30 00:16:27;;;;;;;13;15.3;;;;;;;21.4;100;98310;;;;
2022/06/30 00:27:27;;;;;;;13;15.3;;;;;;;21.4;100;98310;;;;
2022/06/30 00:38:27;;;;;;;12.5;16.4;;;;;;;21.3;100;98320;;;;
2022/06/30 00:48:27;;;;;;;12.5;16.4;;;;;;;21.3;100;98310;;;;
2022/06/30 00:59:27;;;;;;;12.5;16.4;;;;;;;21.2;100;98300;;;;
2022/06/30 01:20:27;;;;;;;13.7;18.2;;;;;;;20.9;100;98290;;;;
2022/06/30 01:31:27;;;;;;;13.7;18.2;;;;;;;20.9;100;98290;;;;
2022/06/30 01:42:27;;;;;;;13.5;15.8;;;;;;;20.8;100;98280;;;;
2022/06/30 01:53:27;;;;;;;13.5;15.8;;;;;;;20.7;100;98290;;;;
2022/06/30 02:04:58;;;;;;;13.5;15.8;;;;;;;20.7;100;98290;;;;
2022/06/30 02:14:27;;;;;;;14.4;17;;;;;;;20.7;100;98280;;;;
2022/06/30 02:25:27;;;;;;;14.4;17;;;;;;;20.5;100;98280;;;;
2022/06/30 02:35:27;;;;;;;14.4;17;;;;;;;20.5;100;98280;;;;
2022/06/30 02:46:27;;;;;;;14.9;18.2;;;;;;;20.5;100;98280;;;;
2022/06/30 02:57:27;;;;;;;14.9;18.2;;;;;;;20.5;100;98280;;;;
2022/06/30 03:07:27;;;;;;;14.9;18.2;;;;;;;20.5;100;98280;;;;
2022/06/30 03:18:27;;;;;;;15.5;18.4;;;;;;;20.5;100;98270;;;;
2022/06/30 03:29:27;;;;;;;15.5;18.4;;;;;;;20.6;100;98280;;;;
2022/06/30 03:39:27;;;;;;;15.6;19.5;;;;;;;20.8;100;98290;;;;
2022/06/30 03:49:27;;;;;;;15.6;19.5;;;;;;;21.1;100;98300;;;;
2022/06/30 04:00:27;;;;;;;15.6;19.5;;;;;;;21.2;100;98310;;;;
2022/06/30 04:11:27;;;;;;;16;19.4;;;;;;;21.4;100;98310;;;;
2022/06/30 04:21:27;;;;;;;16;19.4;;;;;;;21.7;100;98310;;;;
2022/06/30 04:42:27;;;;;;;14.7;18.2;;;;;;;22.4;100;98330;;;;
2022/06/30 04:53:27;;;;;;;14.7;18.2;;;;;;;22.6;100;98340;;;;
2022/06/30 05:03:27;;;;;;;14.7;18.2;;;;;;;22.8;100;98340;;;;
2022/06/30 05:13:27;;;;;;;13.8;19.3;;;;;;;22.8;100;98340;;;;
2022/06/30 05:35:27;;;;;;;13.8;19.3;;;;;;;23.7;100;98340;;;;
2022/06/30 05:45:27;;;;;;;9.1;11.7;;;;;;;24.1;100;98330;;;;
2022/06/30 05:56:27;;;;;;;9.1;11.7;;;;;;;24.5;100;98330;;;;
2022/06/30 06:07:27;;;;;;;9.1;11.7;;;;;;;24.5;100;98330;;;;
2022/06/30 06:18:27;;;;;;;9.7;14.7;;;;;;;24.8;100;98340;;;;
2022/06/30 06:29:27;;;;;;;9.7;14.7;;;;;;;25;100;98360;;;;
2022/06/30 06:40:27;;;;;;;10;12.2;;;;;;;25.4;100;98350;;;;
2022/06/30 06:51:27;;;;;;;10;12.2;;;;;;;25.7;100;98360;;;;
2022/06/30 07:01:27;;;;;;;10;12.2;;;;;;;26.2;100;98350;;;;
2022/06/30 07:11:27;;;;;;;10;12.4;;;;;;;26.5;100;98360;;;;
2022/06/30 07:21:27;;;;;;;10;12.4;;;;;;;26.9;100;98360;;;;
2022/06/30 07:32:27;;;;;;;10;12.4;;;;;;;27.3;100;98360;;;;
2022/06/30 07:42:27;;;;;;;11.3;15.7;;;;;;;27.4;100;98360;;;;
2022/06/30 07:53:27;;;;;;;11.3;15.7;;;;;;;27.7;100;98360;;;;
2022/06/30 08:04:27;;;;;;;11.3;15.7;;;;;;;28.1;100;98370;;;;
2022/06/30 08:15:27;;;;;;;12.9;19;;;;;;;28.1;100;98360;;;;
2022/06/30 08:26:27;;;;;;;12.9;19;;;;;;;29;100;98360;;;;
2022/06/30 08:37:27;;;;;;;12.9;19;;;;;;;29;100;98360;;;;
2022/06/30 08:47:27;;;;;;;11.4;16;;;;;;;29.3;100;98360;;;;
2022/06/30 08:58:27;;;;;;;11.4;16;;;;;;;29.7;100;98360;;;;
2022/06/30 09:09:27;;;;;;;10;17.5;;;;;;;29.9;100;98360;;;;
2022/06/30 09:20:27;;;;;;;10;17.5;;;;;;;30.3;100;98350;;;;
2022/06/30 09:30:27;;;;;;;10;17.5;;;;;;;30.8;100;98350;;;;
2022/06/30 09:41:27;;;;;;;8.3;11.3;;;;;;;31.1;100;98340;;;;
2022/06/30 09:51:27;;;;;;;8.3;11.3;;;;;;;31.3;100;98320;;;;
2022/06/30 10:01:27;;;;;;;8.3;11.3;;;;;;;31.6;100;98310;;;;
2022/06/30 10:12:27;;;;;;;8.7;11.8;;;;;;;31.9;100;98300;;;;
2022/06/30 10:22:27;;;;;;;8.7;11.8;;;;;;;32.1;100;98300;;;;
2022/06/30 10:33:27;;;;;;;8.7;11.8;;;;;;;32.7;97.3;98300;;;;
2022/06/30 10:43:27;;;;;;;8.7;12.5;;;;;;;33;93.7;98290;;;;
2022/06/30 10:53:28;;;;;;;8.7;12.5;;;;;;;33.3;88.9;98280;;;;
2022/06/30 11:03:27;;;;;;;8.7;12.5;;;;;;;33.6;86.5;98270;;;;
2022/06/30 11:14:27;;;;;;;10.3;16.1;;;;;;;34;66.4;98270;;;;
2022/06/30 11:36:27;;;;;;;10.3;16.1;;;;;;;34.5;65.9;98250;;;;
2022/06/30 11:47:29;;;;;;;5;8.3;;;;;;;34.5;63;98240;;;;
2022/06/30 11:58:27;;;;;;;5;8.3;;;;;;;34;65.3;98220;;;;
2022/06/30 12:08:27;;;;;;;5;8.3;;;;;;;33.9;64.1;98210;;;;
2022/06/30 12:19:27;;;;;;;4.8;7.8;;;;;;;34.2;63.2;98190;;;;
2022/06/30 12:30:29;;;;;;;4.8;7.8;;;;;;;34;65.1;98180;;;;
2022/06/30 12:40:27;;;;;;;4.9;10;;;;;;;34.4;68.3;98180;;;;
2022/06/30 12:51:27;;;;;;;4.9;10;;;;;;;34.5;63.3;98190;;;;
2022/06/30 13:01:27;;;;;;;4.9;10;;;;;;;34.3;62.8;98170;;;;
2022/06/30 13:11:27;;;;;;;5;7.5;;;;;;;34.3;64;98150;;;;
2022/06/30 13:21:27;;;;;;;5;7.5;;;;;;;34.4;67.1;98140;;;;
2022/06/30 13:32:27;;;;;;;5;7.5;;;;;;;34.6;68.7;98130;;;;
2022/06/30 13:42:28;;;;;;;5;8.7;;;;;;;34.4;69.2;98150;;;;
2022/06/30 13:52:27;;;;;;;5;8.7;;;;;;;34.1;70.9;98150;;;;
2022/06/30 14:03:27;;;;;;;5;8.7;;;;;;;33.4;69.1;98150;;;;
2022/06/30 14:14:28;;;;;;;4.5;7;;;;;;;33.5;68.2;98150;;;;
2022/06/30 14:25:27;;;;;;;4.5;7;;;;;;;33.3;68.7;98140;;;;
2022/06/30 14:35:27;;;;;;;4.5;7;;;;;;;32.8;72.8;98130;;;;
2022/06/30 14:46:27;;;;;;;3.9;8.5;;;;;;;32.1;76.7;98110;;;;
2022/06/30 14:56:27;;;;;;;3.9;8.5;;;;;;;31.9;76.8;98110;;;;
2022/06/30 15:07:27;;;;;;;3.9;8.5;;;;;;;31.7;81;98120;;;;
2022/06/30 15:17:27;;;;;;;4.3;7.6;;;;;;;31.8;88.5;98120;;;;
2022/06/30 15:28:27;;;;;;;4.3;7.6;;;;;;;31.9;96.1;98120;;;;
2022/06/30 15:38:27;;;;;;;4.3;7.6;;;;;;;33;90.3;98120;;;;
2022/06/30 15:48:27;;;;;;;6.3;14.1;;;;;;;33.3;85.4;98130;;;;
2022/06/30 15:58:29;;;;;;;6.3;14.1;;;;;;;33.9;84.2;98120;;;;
2022/06/30 16:09:27;;;;;;;6.3;14.1;;;;;;;34.7;72.3;98110;;;;
2022/06/30 16:20:28;;;;;;;6.6;9.9;;;;;;;33.3;75.4;98110;;;;
2022/06/30 16:31:27;;;;;;;6.6;9.9;;;;;;;34;76.5;98120;;;;
2022/06/30 16:41:27;;;;;;;6.7;9.6;;;;;;;33.7;77.4;98130;;;;
2022/06/30 16:52:27;;;;;;;6.7;9.6;;;;;;;32.1;86.6;98120;;;;
2022/06/30 17:02:27;;;;;;;6.7;9.6;;;;;;;31;89.5;98120;;;;
2022/06/30 17:12:27;;;;;;;7.5;14;;;;;;;29.7;95.3;98120;;;;
2022/06/30 17:23:27;;;;;;;7.5;14;;;;;;;28.8;100;98130;;;;
2022/06/30 17:33:27;;;;;;;7.5;14;;;;;;;28.4;100;98140;;;;
2022/06/30 17:44:27;;;;;;;6.6;10;;;;;;;27.7;100;98150;;;;
2022/06/30 17:55:27;;;;;;;6.6;10;;;;;;;27.2;100;98150;;;;
2022/06/30 18:16:27;;;;;;;7.6;10.8;;;;;;;26.9;100;98100;;;;
2022/06/30 18:27:27;;;;;;;7.6;10.8;;;;;;;26.7;100;98100;;;;
2022/06/30 18:38:27;;;;;;;7.6;10.8;;;;;;;26.3;100;98110;;;;
2022/06/30 18:48:27;;;;;;;7.6;12.7;;;;;;;26;100;98110;;;;
2022/06/30 18:59:28;;;;;;;7.6;12.7;;;;;;;25.7;100;98120;;;;
2022/06/30 19:09:27;;;;;;;7.6;12.7;;;;;;;25.5;100;98140;;;;
2022/06/30 19:20:28;;;;;;;7.6;10.7;;;;;;;25.2;100;98140;;;;
2022/06/30 19:30:27;;;;;;;7.6;10.7;;;;;;;25;100;98150;;;;
2022/06/30 19:41:27;;;;;;;8.6;13.9;;;;;;;24.8;100;98150;;;;
2022/06/30 19:52:27;;;;;;;8.6;13.9;;;;;;;24.7;100;98150;;;;
2022/06/30 20:13:27;;;;;;;9.9;12.9;;;;;;;24.6;100;98150;;;;
2022/06/30 20:23:27;;;;;;;9.9;12.9;;;;;;;24.5;100;98150;;;;
2022/06/30 20:34:27;;;;;;;9.9;12.9;;;;;;;24.3;100;98150;;;;
2022/06/30 20:44:27;;;;;;;8.3;12.3;;;;;;;24.1;100;98150;;;;
2022/06/30 20:54:27;;;;;;;8.3;12.3;;;;;;;24;100;98150;;;;
2022/06/30 21:04:27;;;;;;;8.3;12.3;;;;;;;23.7;100;98150;;;;
2022/06/30 21:15:27;;;;;;;9.9;14.5;;;;;;;23.3;100;98150;;;;
2022/06/30 21:25:27;;;;;;;9.9;14.5;;;;;;;22.9;100;98160;;;;
2022/06/30 21:36:27;;;;;;;9.9;14.5;;;;;;;22.7;100;98150;;;;
2022/06/30 21:46:27;;;;;;;11.1;15.3;;;;;;;22.4;100;98140;;;;
2022/06/30 21:56:27;;;;;;;11.1;15.3;;;;;;;22.1;100;98140;;;;
2022/06/30 22:06:28;;;;;;;11.1;15.3;;;;;;;21.8;100;98150;;;;
2022/06/30 22:17:27;;;;;;;13.1;18.6;;;;;;;21.6;100;98160;;;;
2022/06/30 22:27:27;;;;;;;13.1;18.6;;;;;;;21.4;100;98150;;;;
2022/06/30 22:37:27;;;;;;;13.1;18.6;;;;;;;21;100;98150;;;;
2022/06/30 22:48:27;;;;;;;12.4;16.1;;;;;;;20.9;100;98150;;;;
2022/06/30 22:59:27;;;;;;;12.4;16.1;;;;;;;20.6;100;98150;;;;
2022/06/30 23:10:27;;;;;;;12.4;16.1;;;;;;;20.5;100;98150;;;;
2022/06/30 23:20:27;;;;;;;13.7;16.7;;;;;;;20.5;100;98170;;;;
2022/06/30 23:31:27;;;;;;;13.7;16.7;;;;;;;20.3;100;98180;;;;
2022/06/30 23:41:27;;;;;;;15;19.1;;;;;;;20.3;100;98180;;;;
2022/06/30 23:51:28;;;;;;;15;19.1;;;;;;;20.1;100;98180;;;;
